This is the latest recevied weather packets stored in our database for station/object IV3CVE-H1. If no packets are shown the sender has not sent any weather packets the latest 10 day(s).
| Time | Temp. | Humidity | Pressure | Rain* | Wind** | Luminosity | Snow |
|---|---|---|---|---|---|---|---|
| 1777635916 | 20.56° C | 32% | 1024.2 hPa | 0 mm | - | - | - |
| 1777635335 | 20.56° C | 32% | 1024.3 hPa | 0 mm | - | - | - |
| 1777634118 | 20° C | 35% | 1024.6 hPa | 0 mm | - | - | - |
| 1777632937 | 20° C | 35% | 1024.8 hPa | 0 mm | - | - | - |
| 1777631117 | 19.44° C | 36% | 1025.2 hPa | 0 mm | - | - | - |
| 1777630518 | 18.89° C | 32% | 1025.3 hPa | 0 mm | - | - | - |
| 1777622738 | 16.11° C | 43% | 1025.8 hPa | 0 mm | - | - | - |
| 1777619716 | 13.89° C | 52% | 1025.8 hPa | 0 mm | - | - | - |
| 1777616137 | 11.67° C | 67% | 1025.5 hPa | 0 mm | - | - | - |
| 1777613118 | 8.33° C | 77% | 1025.2 hPa | 0 mm | - | - | - |
| 1777608916 | 3.89° C | 85% | 1025 hPa | 0 mm | - | - | - |
| 1777608316 | 3.89° C | 85% | 1025 hPa | 0 mm | - | - | - |
| 1777606517 | 3.89° C | 83% | 1024.9 hPa | 0 mm | - | - | - |
| 1777604717 | 4.44° C | 81% | 1025 hPa | 0 mm | - | - | - |
| 1777602336 | 5° C | 79% | 1025 hPa | 0 mm | - | - | - |
| 1777593917 | 6.11° C | 75% | 1025.2 hPa | 0 mm | - | - | - |
| 1777589117 | 10° C | 56% | 1025.2 hPa | 0 mm | - | - | - |
| 1777587317 | 10.56° C | 55% | 1025 hPa | 0 mm | - | - | - |
| 1777580117 | 10.56° C | 62% | 1023.7 hPa | 0 mm | - | - | - |
| 1777579517 | 11.11° C | 61% | 1023.5 hPa | 0 mm | - | - | - |
| 1777574738 | 13.89° C | 49% | 1022 hPa | 0 mm | - | - | - |
| 1777569917 | 17.22° C | 40% | 1021.4 hPa | 0 mm | - | - | - |
| 1777560356 | 20.56° C | 32% | 1020.9 hPa | 0 mm | - | - | - |
| 1777558518 | 20.56° C | 33% | 1020.9 hPa | 0 mm | - | - | - |
| 1777557316 | 20.56° C | 33% | 1021.1 hPa | 0 mm | - | - | - |
* Rain latest hour (hover to see other rain measurements)
** Current wind speed in m/s (hover to see current wind gust speed)